| time (UTC) | temp F | wind direction | speed MPH | gust MPH | rain 1hr in | rain 24hr in | rain mn in | humidity % | barometer mb |
| 20260503212704 | 58 | 226 | 2.0 | 3.0 | 0.00 | 0.00 | 0.00 | 81 | 1013.5 |
| 20260503211705 | 58 | 226 | 2.0 | 5.0 | 0.00 | 0.00 | 0.00 | 81 | 1013.4 |
| 20260503211205 | 59 | 226 | 3.0 | 6.0 | 0.00 | 0.00 | 0.00 | 80 | 1013.4 |
| 20260503210705 | 59 | 230 | 3.0 | 6.0 | 0.00 | 0.00 | 0.00 | 80 | 1013.4 |
| 20260503210205 | 59 | 246 | 3.0 | 6.0 | 0.00 | 0.00 | 0.00 | 80 | 1013.4 |
| 20260503205704 | 59 | 244 | 3.0 | 6.0 | 0.00 | 0.00 | 0.00 | 80 | 1013.4 |
| 20260503205205 | 59 | 233 | 4.0 | 7.0 | 0.00 | 0.00 | 0.00 | 79 | 1013.3 |
| 20260503204205 | 59 | 234 | 4.0 | 7.0 | 0.00 | 0.00 | 0.00 | 79 | 1013.2 |
| 20260503203205 | 59 | 247 | 4.0 | 7.0 | 0.00 | 0.00 | 0.00 | 79 | 1013.1 |
| 20260503202705 | 60 | 261 | 4.0 | 9.0 | 0.00 | 0.00 | 0.00 | 78 | 1013.2 |
| 20260503202205 | 60 | 238 | 5.0 | 9.0 | 0.00 | 0.00 | 0.00 | 78 | 1013.2 |
| 20260503201705 | 60 | 238 | 5.0 | 9.0 | 0.00 | 0.00 | 0.00 | 78 | 1013.1 |
| 20260503201205 | 60 | 215 | 5.0 | 9.0 | 0.00 | 0.00 | 0.00 | 78 | 1013.0 |
| 20260503200705 | 60 | 238 | 5.0 | 9.0 | 0.00 | 0.00 | 0.00 | 78 | 1013.0 |
| 20260503200205 | 60 | 227 | 4.0 | 7.0 | 0.00 | 0.00 | 0.00 | 77 | 1013.0 |
| 20260503195705 | 60 | 259 | 4.0 | 8.0 | 0.00 | 0.00 | 0.00 | 77 | 1012.9 |
| 20260503195205 | 60 | 234 | 5.0 | 9.0 | 0.00 | 0.00 | 0.00 | 76 | 1012.8 |
| 20260503194704 | 61 | 241 | 5.0 | 9.0 | 0.00 | 0.00 | 0.00 | 76 | 1012.8 |
| 20260503194205 | 61 | 225 | 5.0 | 10.0 | 0.00 | 0.00 | 0.00 | 75 | 1012.8 |
| 20260503193704 | 61 | 254 | 5.0 | 10.0 | 0.00 | 0.00 | 0.00 | 75 | 1012.6 |
| 20260503193205 | 61 | 249 | 5.0 | 10.0 | 0.00 | 0.00 | 0.00 | 74 | 1012.5 |
| 20260503192704 | 62 | 240 | 5.0 | 11.0 | 0.00 | 0.00 | 0.00 | 74 | 1012.5 |
| 20260503192205 | 62 | 242 | 5.0 | 11.0 | 0.00 | 0.00 | 0.00 | 73 | 1012.4 |
| 20260503191704 | 62 | 243 | 6.0 | 11.0 | 0.00 | 0.00 | 0.00 | 72 | 1012.5 |
| 20260503191204 | 62 | 238 | 6.0 | 12.0 | 0.00 | 0.00 | 0.00 | 71 | 1012.4 |
| 20260503190704 | 62 | 244 | 6.0 | 12.0 | 0.00 | 0.00 | 0.00 | 70 | 1012.4 |
| 20260503190205 | 63 | 241 | 6.0 | 12.0 | 0.00 | 0.00 | 0.00 | 69 | 1012.2 |
| 20260503185705 | 63 | 232 | 7.0 | 12.0 | 0.00 | 0.00 | 0.00 | 69 | 1012.2 |
| 20260503185204 | 63 | 231 | 7.0 | 12.0 | 0.00 | 0.00 | 0.00 | 68 | 1012.2 |
| 20260503184205 | 64 | 254 | 8.0 | 13.0 | 0.00 | 0.00 | 0.00 | 67 | 1012.2 |
| 20260503182204 | 65 | 244 | 8.0 | 15.0 | 0.00 | 0.00 | 0.00 | 64 | 1012.2 |
| 20260503181205 | 66 | 255 | 9.0 | 18.0 | 0.00 | 0.00 | 0.00 | 62 | 1012.2 |
| 20260503180705 | 66 | 251 | 10.0 | 18.0 | 0.00 | 0.00 | 0.00 | 61 | 1012.1 |
| 20260503180205 | 66 | 226 | 10.0 | 17.0 | 0.00 | 0.00 | 0.00 | 60 | 1012.0 |
| 20260503175705 | 67 | 238 | 9.0 | 18.0 | 0.00 | 0.00 | 0.00 | 60 | 1012.0 |
| 20260503175205 | 67 | 215 | 11.0 | 18.0 | 0.00 | 0.00 | 0.00 | 61 | 1012.0 |
| 20260503174704 | 67 | 244 | 10.0 | 16.0 | 0.00 | 0.00 | 0.00 | 60 | 1012.0 |
| 20260503174205 | 67 | 237 | 9.0 | 17.0 | 0.00 | 0.00 | 0.00 | 61 | 1012.0 |
| 20260503173704 | 67 | 241 | 9.0 | 17.0 | 0.00 | 0.00 | 0.00 | 60 | 1012.2 |
| 20260503173205 | 68 | 217 | 10.0 | 17.0 | 0.00 | 0.00 | 0.00 | 59 | 1012.2 |
| 20260503172205 | 69 | 238 | 9.0 | 18.0 | 0.00 | 0.00 | 0.00 | 57 | 1012.1 |
| 20260503171705 | 70 | 223 | 9.0 | 18.0 | 0.00 | 0.00 | 0.00 | 57 | 1012.1 |
| 20260503171205 | 69 | 231 | 10.0 | 17.0 | 0.00 | 0.00 | 0.00 | 57 | 1012.1 |
| 20260503170705 | 69 | 242 | 10.0 | 18.0 | 0.00 | 0.00 | 0.00 | 57 | 1012.1 |
| 20260503160205 | 71 | 236 | 10.0 | 19.0 | 0.00 | 0.00 | 0.00 | 53 | 1012.1 |
| 20260503150220 | 73 | 290 | 10.0 | 18.0 | 0.00 | 0.00 | 0.00 | 49 | 1012.5 |
| 20260503140205 | 73 | 255 | 10.0 | 19.0 | 0.00 | 0.00 | 0.00 | 51 | 1012.9 |
| 20260503131205 | 71 | 281 | 9.0 | 17.0 | 0.00 | 0.00 | 0.00 | 55 | 1013.1 |
| 20260503130705 | 71 | 263 | 9.0 | 17.0 | 0.00 | 0.00 | 0.00 | 55 | 1013.1 |
| 20260503130205 | 72 | 257 | 8.0 | 17.0 | 0.00 | 0.00 | 0.00 | 57 | 1013.3 |
| 20260503110704 | 71 | 222 | 6.0 | 11.0 | 0.00 | 0.00 | 0.00 | 56 | 1014.2 |
| 20260503110204 | 70 | 207 | 4.0 | 11.0 | 0.00 | 0.00 | 0.00 | 59 | 1014.2 |
| 20260503100205 | 67 | 197 | 5.0 | 10.0 | 0.00 | 0.00 | 0.00 | 68 | 1014.2 |
| 20260503090205 | 65 | 259 | 4.0 | 8.0 | 0.00 | 0.00 | 0.00 | 76 | 1014.2 |
| 20260503081204 | 64 | 300 | 1.0 | 4.0 | 0.00 | 0.00 | 0.00 | 84 | 1014.1 |
| 20260503080704 | 64 | 34 | 1.0 | 4.0 | 0.00 | 0.00 | 0.00 | 85 | 1014.0 |
| 20260503080205 | 63 | 346 | 2.0 | 4.0 | 0.00 | 0.00 | 0.00 | 86 | 1014.0 |
| 20260503072704 | 60 | 89 | 1.0 | 4.0 | 0.00 | 0.00 | 0.00 | 93 | 1013.8 |
| 20260503072205 | 60 | 208 | 1.0 | 4.0 | 0.00 | 0.00 | 0.00 | 93 | 1013.8 |
| 20260503071704 | 60 | 269 | 2.0 | 5.0 | 0.00 | 0.00 | 0.00 | 93 | 1013.8 |
| 20260503071204 | 60 | 309 | 2.0 | 5.0 | 0.00 | 0.00 | 0.00 | 93 | 1013.8 |
| 20260503070705 | 60 | 298 | 2.0 | 5.0 | 0.00 | 0.00 | 0.00 | 94 | 1013.8 |
| 20260503070205 | 60 | 314 | 2.0 | 5.0 | 0.00 | 0.00 | 0.00 | 94 | 1013.9 |
| 20260503060205 | 59 | 307 | 2.0 | 4.0 | 0.00 | 0.00 | 0.00 | 94 | 1013.6 |
| 20260503054205 | 59 | 281 | 2.0 | 4.0 | 0.00 | 0.00 | 0.00 | 93 | 1013.5 |
| 20260503053705 | 60 | 306 | 2.0 | 4.0 | 0.00 | 0.00 | 0.00 | 93 | 1013.5 |
| 20260503053204 | 60 | 306 | 2.0 | 4.0 | 0.00 | 0.00 | 0.00 | 93 | 1013.5 |
| 20260503052705 | 60 | 232 | 2.0 | 4.0 | 0.00 | 0.00 | 0.00 | 93 | 1013.5 |
| 20260503052205 | 60 | 258 | 1.0 | 3.0 | 0.00 | 0.00 | 0.00 | 93 | 1013.5 |
| 20260503051704 | 60 | 253 | 1.0 | 2.0 | 0.00 | 0.00 | 0.00 | 93 | 1013.4 |
| 20260503051205 | 60 | 229 | 1.0 | 3.0 | 0.00 | 0.00 | 0.00 | 93 | 1013.3 |
| 20260503050705 | 60 | 229 | 1.0 | 3.0 | 0.00 | 0.00 | 0.00 | 93 | 1013.3 |
| 20260503050205 | 60 | 229 | 1.0 | 3.0 | 0.00 | 0.00 | 0.00 | 93 | 1013.2 |
| 20260503045705 | 60 | 225 | 1.0 | 5.0 | 0.00 | 0.00 | 0.00 | 93 | 1013.2 |
| 20260503045205 | 60 | 225 | 1.0 | 5.0 | 0.00 | 0.00 | 0.00 | 92 | 1013.2 |
| 20260503044704 | 60 | 228 | 1.0 | 3.0 | 0.00 | 0.00 | 0.00 | 92 | 1013.3 |
| 20260503044204 | 60 | 194 | 1.0 | 3.0 | 0.00 | 0.00 | 0.00 | 92 | 1013.3 |
| 20260503043704 | 60 | 194 | 1.0 | 3.0 | 0.00 | 0.00 | 0.00 | 92 | 1013.2 |
| 20260503043204 | 60 | 221 | 1.0 | 4.0 | 0.00 | 0.00 | 0.00 | 92 | 1013.2 |
| 20260503042704 | 60 | 221 | 1.0 | 4.0 | 0.00 | 0.00 | 0.00 | 92 | 1013.3 |
| 20260503042205 | 60 | 221 | 1.0 | 4.0 | 0.00 | 0.00 | 0.00 | 92 | 1013.3 |
| 20260503041705 | 60 | 221 | 1.0 | 2.0 | 0.00 | 0.00 | 0.00 | 92 | 1013.3 |
| 20260503041205 | 60 | 202 | 0.0 | 2.0 | 0.00 | 0.00 | 0.00 | 92 | 1013.3 |
| 20260503040705 | 60 | 206 | 0.0 | 0.0 | 0.00 | 0.00 | 0.00 | 92 | 1013.3 |
| 20260503040205 | 60 | 313 | 0.0 | 0.0 | 0.00 | 0.00 | 0.00 | 92 | 1013.3 |
| 20260503035705 | 60 | 313 | 0.0 | 0.0 | 0.00 | 0.00 | 0.00 | 92 | 1013.4 |
| 20260503035205 | 60 | 313 | 0.0 | 0.0 | 0.00 | 0.00 | 0.00 | 92 | 1013.5 |
| 20260503034704 | 59 | 313 | 0.0 | 0.0 | 0.00 | 0.00 | 0.00 | 92 | 1013.6 |
| 20260503034205 | 59 | 313 | 0.0 | 0.0 | 0.00 | 0.00 | 0.00 | 91 | 1013.5 |
| 20260503033205 | 59 | 313 | 0.0 | 0.0 | 0.00 | 0.00 | 0.00 | 91 | 1013.3 |
| 20260503032704 | 59 | 313 | 0.0 | 0.0 | 0.00 | 0.00 | 0.00 | 91 | 1013.4 |
| 20260503032204 | 59 | 313 | 0.0 | 0.0 | 0.00 | 0.00 | 0.00 | 91 | 1013.5 |
| 20260503031705 | 59 | 313 | 0.0 | 0.0 | 0.00 | 0.00 | 0.00 | 91 | 1013.4 |
| 20260503031221 | 59 | 313 | 0.0 | 0.0 | 0.00 | 0.00 | 0.00 | 91 | 1013.4 |
| 20260503030704 | 59 | 313 | 0.0 | 0.0 | 0.00 | 0.00 | 0.00 | 91 | 1013.4 |
| 20260503030205 | 59 | 313 | 0.0 | 2.0 | 0.00 | 0.00 | 0.00 | 91 | 1013.5 |
| 20260503025705 | 59 | 313 | 0.0 | 3.0 | 0.00 | 0.00 | 0.00 | 91 | 1013.6 |
| 20260503025205 | 59 | 313 | 1.0 | 3.0 | 0.00 | 0.00 | 0.00 | 90 | 1013.5 |
| 20260503024704 | 59 | 313 | 1.0 | 3.0 | 0.00 | 0.00 | 0.00 | 90 | 1013.7 |
| 20260503024205 | 59 | 313 | 1.0 | 2.0 | 0.00 | 0.00 | 0.00 | 90 | 1013.5 |
| 20260503023705 | 59 | 201 | 1.0 | 2.0 | 0.00 | 0.00 | 0.00 | 90 | 1013.6 |
| 20260503022704 | 59 | 201 | 1.0 | 3.0 | 0.00 | 0.00 | 0.00 | 90 | 1013.7 |
| 20260503021705 | 59 | 201 | 2.0 | 2.0 | 0.00 | 0.00 | 0.00 | 90 | 1013.6 |
| 20260503021205 | 59 | 201 | 1.0 | 3.0 | 0.00 | 0.00 | 0.00 | 89 | 1013.6 |
| 20260503020704 | 59 | 201 | 0.0 | 3.0 | 0.00 | 0.00 | 0.00 | 89 | 1013.7 |
| 20260503020205 | 59 | 201 | 1.0 | 3.0 | 0.00 | 0.00 | 0.00 | 89 | 1013.7 |
| 20260503015705 | 59 | 201 | 2.0 | 3.0 | 0.00 | 0.00 | 0.00 | 89 | 1013.8 |
| 20260503015205 | 59 | 201 | 2.0 | 3.0 | 0.00 | 0.00 | 0.00 | 89 | 1013.8 |
| 20260503014705 | 59 | 201 | 2.0 | 3.0 | 0.00 | 0.00 | 0.00 | 89 | 1013.8 |
| 20260503014205 | 59 | 201 | 2.0 | 4.0 | 0.00 | 0.00 | 0.00 | 88 | 1013.8 |
| 20260503013704 | 59 | 201 | 2.0 | 4.0 | 0.00 | 0.00 | 0.00 | 89 | 1014.0 |
| 20260503013205 | 59 | 201 | 3.0 | 4.0 | 0.00 | 0.00 | 0.00 | 88 | 1014.0 |
| 20260503012705 | 59 | 205 | 3.0 | 4.0 | 0.00 | 0.00 | 0.00 | 88 | 1014.0 |
| 20260503012205 | 59 | 208 | 3.0 | 4.0 | 0.00 | 0.00 | 0.00 | 88 | 1014.1 |
| 20260503011705 | 59 | 217 | 2.0 | 4.0 | 0.00 | 0.00 | 0.00 | 88 | 1014.2 |
| 20260503011205 | 59 | 217 | 2.0 | 4.0 | 0.00 | 0.00 | 0.00 | 87 | 1014.3 |
| 20260503010705 | 59 | 217 | 2.0 | 4.0 | 0.00 | 0.00 | 0.00 | 87 | 1014.4 |
| 20260503010204 | 59 | 217 | 2.0 | 4.0 | 0.00 | 0.00 | 0.00 | 87 | 1014.5 |
| 20260503005705 | 59 | 217 | 3.0 | 4.0 | 0.00 | 0.00 | 0.00 | 87 | 1014.5 |
| 20260503005204 | 60 | 213 | 3.0 | 4.0 | 0.00 | 0.00 | 0.00 | 87 | 1014.6 |
| 20260503004705 | 60 | 220 | 3.0 | 4.0 | 0.00 | 0.00 | 0.00 | 86 | 1014.6 |
| 20260503004204 | 60 | 230 | 2.0 | 4.0 | 0.00 | 0.00 | 0.00 | 86 | 1014.6 |
| 20260503003704 | 60 | 221 | 2.0 | 4.0 | 0.00 | 0.00 | 0.00 | 86 | 1014.6 |
| 20260503003205 | 60 | 218 | 2.0 | 4.0 | 0.00 | 0.00 | 0.00 | 86 | 1014.7 |
| 20260503002704 | 60 | 237 | 3.0 | 4.0 | 0.00 | 0.00 | 0.00 | 86 | 1014.8 |
| 20260503002205 | 60 | 229 | 3.0 | 5.0 | 0.00 | 0.00 | 0.00 | 86 | 1014.8 |
| 20260503001705 | 60 | 228 | 2.0 | 5.0 | 0.00 | 0.00 | 0.00 | 86 | 1014.8 |
| 20260503001205 | 60 | 220 | 3.0 | 5.0 | 0.00 | 0.00 | 0.00 | 86 | 1015.0 |
| 20260503000720 | 60 | 217 | 3.0 | 4.0 | 0.00 | 0.00 | 0.00 | 86 | 1014.9 |
| 20260503000205 | 60 | 219 | 3.0 | 4.0 | 0.00 | 0.00 | 0.00 | 86 | 1014.9 |
| 20260502235705 | 60 | 216 | 3.0 | 4.0 | 0.00 | 0.00 | 0.00 | 86 | 1015.0 |
| 20260502234705 | 60 | 219 | 3.0 | 4.0 | 0.00 | 0.00 | 0.00 | 86 | 1015.0 |
| 20260502233704 | 60 | 244 | 3.0 | 5.0 | 0.00 | 0.00 | 0.00 | 86 | 1015.1 |
| 20260502233205 | 60 | 241 | 3.0 | 5.0 | 0.00 | 0.00 | 0.00 | 85 | 1015.0 |
| 20260502232705 | 60 | 243 | 3.0 | 5.0 | 0.00 | 0.00 | 0.00 | 85 | 1015.0 |
| 20260502232205 | 60 | 245 | 3.0 | 5.0 | 0.00 | 0.00 | 0.00 | 84 | 1015.1 |
| 20260502231705 | 60 | 250 | 3.0 | 5.0 | 0.00 | 0.00 | 0.00 | 84 | 1015.1 |
| 20260502231205 | 60 | 250 | 3.0 | 5.0 | 0.00 | 0.00 | 0.00 | 84 | 1015.1 |
| 20260502230704 | 60 | 238 | 3.0 | 5.0 | 0.00 | 0.00 | 0.00 | 84 | 1015.0 |
| 20260502230204 | 60 | 243 | 3.0 | 4.0 | 0.00 | 0.00 | 0.00 | 83 | 1015.1 |
| 20260502225704 | 60 | 237 | 3.0 | 4.0 | 0.00 | 0.00 | 0.00 | 83 | 1015.1 |
| 20260502225205 | 60 | 238 | 3.0 | 5.0 | 0.00 | 0.00 | 0.00 | 83 | 1015.1 |
| 20260502224704 | 60 | 245 | 3.0 | 5.0 | 0.00 | 0.00 | 0.00 | 82 | 1015.1 |
| 20260502224204 | 60 | 252 | 3.0 | 6.0 | 0.00 | 0.00 | 0.00 | 82 | 1015.1 |
| 20260502223705 | 60 | 248 | 3.0 | 7.0 | 0.00 | 0.00 | 0.00 | 81 | 1015.0 |
| 20260502223205 | 61 | 252 | 3.0 | 7.0 | 0.00 | 0.00 | 0.00 | 81 | 1015.1 |
| 20260502222705 | 61 | 270 | 4.0 | 7.0 | 0.00 | 0.00 | 0.00 | 81 | 1015.1 |
| 20260502222204 | 61 | 269 | 5.0 | 7.0 | 0.00 | 0.00 | 0.00 | 80 | 1015.0 |
| 20260502221705 | 61 | 270 | 4.0 | 7.0 | 0.00 | 0.00 | 0.00 | 80 | 1015.1 |
| 20260502221205 | 61 | 261 | 5.0 | 7.0 | 0.00 | 0.00 | 0.00 | 80 | 1015.0 |
| 20260502220704 | 61 | 277 | 4.0 | 8.0 | 0.00 | 0.00 | 0.00 | 80 | 1015.0 |
| 20260502220205 | 61 | 267 | 4.0 | 8.0 | 0.00 | 0.00 | 0.00 | 80 | 1015.0 |
| 20260502215704 | 61 | 259 | 5.0 | 7.0 | 0.00 | 0.00 | 0.00 | 80 | 1015.1 |
| 20260502215205 | 61 | 281 | 4.0 | 7.0 | 0.00 | 0.00 | 0.00 | 81 | 1015.1 |
| 20260502214704 | 61 | 251 | 4.0 | 7.0 | 0.00 | 0.00 | 0.00 | 81 | 1014.9 |
| 20260502214205 | 61 | 273 | 4.0 | 7.0 | 0.00 | 0.00 | 0.00 | 82 | 1015.1 |